Time;durP1;ratioP1;P1;durP2;ratioP2;P2;SDS_P1;SDS_P2;PMS_P1;PMS_P2;Temp;Humidity;BMP_temperature;BMP_pressure;BME280_temperature;BME280_humidity;BME280_pressure;Samples;Min_cycle;Max_cycle;Signal;HPM_P1;HPM_P2
2021/12/27 00:00:30;;;;;;;;;2.00;1.00;;;;;;;;5116544;27;45328;-81
2021/12/27 00:02:56;;;;;;;;;3.00;2.00;;;;;;;;5117255;27;45646;-81
2021/12/27 00:05:22;;;;;;;;;3.50;2.25;;;;;;;;5134654;27;46731;-81
2021/12/27 00:07:51;;;;;;;;;2.50;2.50;;;;;;;;5116407;27;45439;-80
2021/12/27 00:10:17;;;;;;;;;1.00;1.00;;;;;;;;5116355;27;45424;-81
2021/12/27 00:12:42;;;;;;;;;5.25;2.75;;;;;;;;5135635;27;45602;-81
2021/12/27 00:15:09;;;;;;;;;3.75;2.50;;;;;;;;5116271;27;46989;-80
2021/12/27 00:17:34;;;;;;;;;3.00;3.00;;;;;;;;5134795;27;46012;-80
2021/12/27 00:19:59;;;;;;;;;5.50;3.50;;;;;;;;5134907;27;45494;-80
2021/12/27 00:22:24;;;;;;;;;1.67;1.67;;;;;;;;5135130;27;45344;-80
2021/12/27 00:24:50;;;;;;;;;2.00;2.00;;;;;;;;5134407;27;46141;-81
2021/12/27 00:27:16;;;;;;;;;2.75;2.75;;;;;;;;5116324;27;46120;-81
2021/12/27 00:29:42;;;;;;;;;4.00;2.00;;;;;;;;5116205;27;45338;-81
2021/12/27 00:32:07;;;;;;;;;3.67;2.00;;;;;;;;5116265;27;45285;-80
2021/12/27 00:34:32;;;;;;;;;2.00;2.00;;;;;;;;5116101;27;48190;-81
2021/12/27 00:36:57;;;;;;;;;3.00;3.00;;;;;;;;5134870;27;45489;-81
2021/12/27 00:39:23;;;;;;;;;3.00;2.33;;;;;;;;5115704;27;45325;-80
2021/12/27 00:41:48;;;;;;;;;3.00;2.00;;;;;;;;5116291;27;45749;-79
2021/12/27 00:44:13;;;;;;;;;2.00;2.00;;;;;;;;5137233;27;46645;-80
2021/12/27 00:46:38;;;;;;;;;3.00;2.00;;;;;;;;5119790;27;45403;-81
2021/12/27 00:49:03;;;;;;;;;1.00;1.00;;;;;;;;5120017;27;45546;-81
2021/12/27 00:51:29;;;;;;;;;3.00;2.00;;;;;;;;5119745;27;45565;-81
2021/12/27 00:53:54;;;;;;;;;5.00;3.00;;;;;;;;5137434;27;47750;-85
2021/12/27 00:56:19;;;;;;;;;3.50;3.00;;;;;;;;5119320;27;45514;-82
2021/12/27 00:58:44;;;;;;;;;2.00;2.00;;;;;;;;5119656;27;45476;-81
2021/12/27 01:01:10;;;;;;;;;2.33;2.00;;;;;;;;5119981;27;45846;-85
2021/12/27 01:03:35;;;;;;;;;3.00;2.00;;;;;;;;5119335;27;47258;-84
2021/12/27 01:06:00;;;;;;;;;2.67;2.67;;;;;;;;5138196;27;45396;-82
2021/12/27 01:08:25;;;;;;;;;2.33;2.00;;;;;;;;5138011;27;45270;-84
2021/12/27 01:16:10;;;;;;;;;2.75;2.00;;;;;;;;5138295;27;45299;-82
2021/12/27 01:18:46;;;;;;;;;2.50;1.25;;;;;;;;5138176;27;45259;-84
2021/12/27 01:21:12;;;;;;;;;2.00;1.00;;;;;;;;5138184;27;45538;-81
2021/12/27 01:23:38;;;;;;;;;2.50;2.00;;;;;;;;5137455;27;45537;-84
2021/12/27 01:26:03;;;;;;;;;3.25;2.50;;;;;;;;5118826;27;46263;-86
2021/12/27 01:28:29;;;;;;;;;2.25;2.00;;;;;;;;5119231;27;45295;-83
2021/12/27 01:30:54;;;;;;;;;2.00;2.00;;;;;;;;5137965;27;45332;-84
2021/12/27 01:33:20;;;;;;;;;2.00;1.00;;;;;;;;5137678;27;45547;-85
2021/12/27 01:35:46;;;;;;;;;1.00;1.00;;;;;;;;5137697;27;45773;-82
2021/12/27 01:38:13;;;;;;;;;1.00;1.00;;;;;;;;5137875;27;45329;-81
2021/12/27 01:40:39;;;;;;;;;1.50;1.50;;;;;;;;5119052;27;45730;-83
2021/12/27 01:43:15;;;;;;;;;1.25;1.25;;;;;;;;5118828;27;48006;-81
2021/12/27 01:45:45;;;;;;;;;2.00;1.00;;;;;;;;5137591;27;45380;-85
2021/12/27 01:48:11;;;;;;;;;1.00;1.00;;;;;;;;5137855;27;45430;-84
2021/12/27 01:50:37;;;;;;;;;1.00;1.00;;;;;;;;5118756;27;45306;-82
2021/12/27 01:53:03;;;;;;;;;2.25;2.25;;;;;;;;5118665;27;48515;-84
2021/12/27 01:55:28;;;;;;;;;3.00;2.50;;;;;;;;5136702;27;45483;-81
2021/12/27 01:57:53;;;;;;;;;2.33;2.33;;;;;;;;5137258;27;45278;-81
2021/12/27 02:00:19;;;;;;;;;2.00;2.00;;;;;;;;5137657;27;45268;-81
2021/12/27 02:02:45;;;;;;;;;2.00;2.00;;;;;;;;5137708;27;46290;-81
2021/12/27 02:05:11;;;;;;;;;2.75;2.00;;;;;;;;5118507;27;45357;-85
2021/12/27 02:07:36;;;;;;;;;3.00;2.00;;;;;;;;5118540;27;45386;-81
2021/12/27 02:10:02;;;;;;;;;3.00;2.67;;;;;;;;5136987;27;45374;-84
2021/12/27 02:12:32;;;;;;;;;4.00;3.75;;;;;;;;5118199;27;47250;-82
2021/12/27 02:14:57;;;;;;;;;3.00;2.00;;;;;;;;5118376;27;46017;-81
2021/12/27 02:17:23;;;;;;;;;2.00;2.00;;;;;;;;5137268;27;45464;-82
2021/12/27 02:19:51;;;;;;;;;2.50;2.00;;;;;;;;5137123;27;45395;-84
2021/12/27 02:22:17;;;;;;;;;2.25;2.25;;;;;;;;5136876;27;46526;-81
2021/12/27 02:24:42;;;;;;;;;4.00;3.75;;;;;;;;5118085;27;45528;-81
2021/12/27 02:27:07;;;;;;;;;4.00;2.33;;;;;;;;5137145;27;45441;-80
2021/12/27 02:29:33;;;;;;;;;4.00;3.00;;;;;;;;5137120;27;45391;-81
2021/12/27 02:31:58;;;;;;;;;3.00;2.75;;;;;;;;5118022;27;46275;-80
2021/12/27 02:34:23;;;;;;;;;2.25;2.25;;;;;;;;5136606;27;45503;-81
2021/12/27 02:36:49;;;;;;;;;3.67;3.33;;;;;;;;5136806;27;45291;-81
2021/12/27 02:39:14;;;;;;;;;3.00;3.00;;;;;;;;5117750;27;45476;-80
2021/12/27 02:41:39;;;;;;;;;3.75;3.00;;;;;;;;5117802;27;46989;-81
2021/12/27 02:44:05;;;;;;;;;4.00;3.00;;;;;;;;5136600;27;45357;-81
2021/12/27 02:46:30;;;;;;;;;3.00;3.00;;;;;;;;5136612;27;45527;-80
2021/12/27 02:48:55;;;;;;;;;5.00;3.00;;;;;;;;5136450;27;45469;-81
2021/12/27 02:51:20;;;;;;;;;5.00;3.00;;;;;;;;5136392;27;46142;-80
2021/12/27 02:53:47;;;;;;;;;2.67;2.00;;;;;;;;5113983;27;45522;-82
2021/12/27 02:56:12;;;;;;;;;4.75;4.00;;;;;;;;5114349;27;45400;-80
2021/12/27 02:58:37;;;;;;;;;3.75;3.00;;;;;;;;5115734;27;45471;-81
2021/12/27 03:01:05;;;;;;;;;4.00;3.00;;;;;;;;5114091;27;48385;-85
2021/12/27 03:03:30;;;;;;;;;5.00;2.75;;;;;;;;5114066;27;46071;-85
2021/12/27 03:05:55;;;;;;;;;3.00;3.00;;;;;;;;5115085;27;45391;-83
2021/12/27 03:08:21;;;;;;;;;6.25;5.00;;;;;;;;5113796;27;45300;-85
2021/12/27 03:10:48;;;;;;;;;1.75;1.75;;;;;;;;5115417;27;46662;-84
2021/12/27 03:13:18;;;;;;;;;4.25;3.75;;;;;;;;5115406;27;45803;-80
2021/12/27 03:15:44;;;;;;;;;4.00;4.00;;;;;;;;5115470;27;45349;-81
2021/12/27 03:18:10;;;;;;;;;6.00;4.50;;;;;;;;5114100;27;45633;-84
2021/12/27 03:20:35;;;;;;;;;4.00;4.00;;;;;;;;5115237;27;45713;-82
2021/12/27 03:23:00;;;;;;;;;3.00;3.00;;;;;;;;5115478;27;45445;-81
2021/12/27 03:25:26;;;;;;;;;4.00;3.00;;;;;;;;5113310;27;45415;-81
2021/12/27 03:27:51;;;;;;;;;4.00;4.00;;;;;;;;5114005;27;45295;-84
2021/12/27 03:30:19;;;;;;;;;5.25;2.00;;;;;;;;5113586;27;46142;-85
2021/12/27 03:32:45;;;;;;;;;4.75;4.00;;;;;;;;5113540;27;45836;-81
2021/12/27 03:35:14;;;;;;;;;5.00;4.00;;;;;;;;5113683;27;45379;-85
2021/12/27 03:37:40;;;;;;;;;5.00;4.75;;;;;;;;5113741;27;45378;-85
2021/12/27 03:40:07;;;;;;;;;4.25;3.00;;;;;;;;5114623;27;45371;-81
2021/12/27 03:42:32;;;;;;;;;2.75;2.75;;;;;;;;5113557;27;45932;-85
2021/12/27 03:44:58;;;;;;;;;5.00;4.75;;;;;;;;5113683;27;45426;-84
2021/12/27 03:47:23;;;;;;;;;4.00;4.00;;;;;;;;5115020;27;45359;-81
2021/12/27 03:49:48;;;;;;;;;5.25;4.00;;;;;;;;5113349;27;47541;-85
2021/12/27 03:52:13;;;;;;;;;4.67;4.00;;;;;;;;5113648;27;45916;-84
2021/12/27 03:54:38;;;;;;;;;4.33;3.67;;;;;;;;5112863;27;45327;-85
2021/12/27 03:57:04;;;;;;;;;6.00;5.33;;;;;;;;5115041;27;45461;-85
2021/12/27 04:02:10;;;;;;;;;4.25;3.25;;;;;;;;5114535;27;46000;-81
2021/12/27 04:04:35;;;;;;;;;3.50;3.25;;;;;;;;5114563;27;45353;-81
2021/12/27 04:07:01;;;;;;;;;5.00;5.00;;;;;;;;5113396;27;45488;-81
2021/12/27 04:09:27;;;;;;;;;4.75;4.25;;;;;;;;5114083;27;45959;-82
2021/12/27 04:11:52;;;;;;;;;5.50;4.75;;;;;;;;5113246;27;46004;-81
2021/12/27 04:14:17;;;;;;;;;4.00;4.00;;;;;;;;5113096;27;45467;-84
2021/12/27 04:16:43;;;;;;;;;5.00;4.00;;;;;;;;5113025;27;45542;-85
2021/12/27 04:19:08;;;;;;;;;5.00;4.00;;;;;;;;5111974;27;47012;-82
2021/12/27 04:21:33;;;;;;;;;5.00;4.50;;;;;;;;5114333;27;45460;-81
2021/12/27 04:23:58;;;;;;;;;3.33;3.00;;;;;;;;5114367;27;45384;-85
2021/12/27 04:26:24;;;;;;;;;4.00;4.00;;;;;;;;5113051;27;45313;-84
2021/12/27 04:28:49;;;;;;;;;4.00;4.00;;;;;;;;5112772;27;48017;-82
2021/12/27 04:31:15;;;;;;;;;5.00;4.00;;;;;;;;5114364;27;45349;-85
2021/12/27 04:33:40;;;;;;;;;9.50;5.75;;;;;;;;5112745;27;45491;-81
2021/12/27 04:36:06;;;;;;;;;2.25;2.25;;;;;;;;5112896;27;45332;-84
2021/12/27 04:38:31;;;;;;;;;4.00;4.00;;;;;;;;5112414;27;47113;-81
2021/12/27 04:40:57;;;;;;;;;5.25;3.75;;;;;;;;5114411;27;45352;-83
2021/12/27 04:43:23;;;;;;;;;3.00;3.00;;;;;;;;5114213;27;45432;-80
2021/12/27 04:45:49;;;;;;;;;5.00;4.75;;;;;;;;5112780;27;45676;-81
2021/12/27 04:48:15;;;;;;;;;5.00;4.50;;;;;;;;5112699;27;47316;-81
2021/12/27 04:50:40;;;;;;;;;3.50;3.25;;;;;;;;5113608;27;45415;-81
2021/12/27 04:53:06;;;;;;;;;4.67;4.00;;;;;;;;5112447;27;45721;-80
2021/12/27 04:55:31;;;;;;;;;4.00;4.00;;;;;;;;5114090;27;45459;-80
2021/12/27 04:57:56;;;;;;;;;5.00;5.00;;;;;;;;5112340;27;46426;-80
2021/12/27 05:00:22;;;;;;;;;4.00;4.00;;;;;;;;5113946;27;45397;-80
2021/12/27 05:02:47;;;;;;;;;5.00;4.00;;;;;;;;5112488;27;45375;-81
2021/12/27 05:05:12;;;;;;;;;5.25;3.75;;;;;;;;5112164;27;45657;-80
2021/12/27 05:07:38;;;;;;;;;4.00;3.67;;;;;;;;5112269;27;47076;-86
2021/12/27 05:10:03;;;;;;;;;7.00;5.33;;;;;;;;5112045;27;45486;-85
2021/12/27 05:12:29;;;;;;;;;5.50;5.00;;;;;;;;5113709;27;45400;-85
2021/12/27 05:14:54;;;;;;;;;5.25;5.25;;;;;;;;5112808;27;45662;-80
2021/12/27 05:17:19;;;;;;;;;4.33;3.67;;;;;;;;5112266;27;46995;-83
2021/12/27 05:19:45;;;;;;;;;4.00;4.00;;;;;;;;5112174;27;45633;-84
2021/12/27 05:22:10;;;;;;;;;5.33;5.00;;;;;;;;5112626;27;45486;-81
2021/12/27 05:24:35;;;;;;;;;5.00;5.00;;;;;;;;5112164;27;45578;-84
2021/12/27 05:27:00;;;;;;;;;6.00;5.00;;;;;;;;5113173;27;46322;-83
2021/12/27 05:29:26;;;;;;;;;3.67;3.67;;;;;;;;5113608;27;45378;-81
2021/12/27 05:31:51;;;;;;;;;3.75;3.75;;;;;;;;5117370;27;45482;-81
2021/12/27 05:34:17;;;;;;;;;5.50;4.00;;;;;;;;5116994;27;45656;-84
2021/12/27 05:36:42;;;;;;;;;6.00;5.00;;;;;;;;5116568;27;47360;-82
2021/12/27 05:39:12;;;;;;;;;6.50;5.50;;;;;;;;5115237;27;45931;-81
2021/12/27 05:41:37;;;;;;;;;7.00;6.25;;;;;;;;5113588;27;45639;-81
2021/12/27 05:44:03;;;;;;;;;9.50;7.75;;;;;;;;5115480;27;45508;-82
2021/12/27 05:46:28;;;;;;;;;9.50;8.25;;;;;;;;5115404;27;46254;-86
2021/12/27 05:48:53;;;;;;;;;9.33;9.00;;;;;;;;5116688;27;45358;-82
2021/12/27 05:51:18;;;;;;;;;9.67;9.00;;;;;;;;5115282;27;45324;-81
2021/12/27 05:53:44;;;;;;;;;8.33;6.33;;;;;;;;5114649;27;45382;-85
2021/12/27 05:56:09;;;;;;;;;10.67;7.00;;;;;;;;5115134;27;47551;-80
2021/12/27 05:58:34;;;;;;;;;5.67;5.67;;;;;;;;5116326;27;45389;-81
2021/12/27 06:00:59;;;;;;;;;7.00;6.00;;;;;;;;5115442;27;45439;-84
2021/12/27 06:03:24;;;;;;;;;7.67;7.00;;;;;;;;5114976;27;45479;-84
2021/12/27 06:05:50;;;;;;;;;7.67;6.67;;;;;;;;5116136;27;47369;-84
2021/12/27 06:08:15;;;;;;;;;9.33;5.67;;;;;;;;5114826;27;45515;-85
2021/12/27 06:10:40;;;;;;;;;6.33;6.00;;;;;;;;5115125;27;45365;-82
2021/12/27 06:13:05;;;;;;;;;5.50;5.00;;;;;;;;5115291;27;45336;-85
2021/12/27 06:15:31;;;;;;;;;6.33;6.00;;;;;;;;5116213;27;45420;-81
2021/12/27 06:17:56;;;;;;;;;7.00;6.00;;;;;;;;5114523;27;45876;-82
2021/12/27 06:20:21;;;;;;;;;6.25;6.25;;;;;;;;5116445;27;45511;-81
2021/12/27 06:22:51;;;;;;;;;5.00;4.50;;;;;;;;5114759;27;45373;-84
2021/12/27 06:25:17;;;;;;;;;6.00;6.00;;;;;;;;5115835;27;46380;-85
2021/12/27 06:27:42;;;;;;;;;6.25;6.25;;;;;;;;5116030;27;45448;-82
2021/12/27 06:30:08;;;;;;;;;6.50;6.50;;;;;;;;5114964;27;45354;-85
2021/12/27 06:32:35;;;;;;;;;10.00;9.00;;;;;;;;5116336;27;45385;-81
2021/12/27 06:35:00;;;;;;;;;7.25;6.00;;;;;;;;5114358;27;47070;-84
2021/12/27 06:37:25;;;;;;;;;9.00;6.67;;;;;;;;5116001;27;45278;-81
2021/12/27 06:39:50;;;;;;;;;7.67;7.67;;;;;;;;5115458;27;45760;-85
2021/12/27 06:42:16;;;;;;;;;7.33;6.00;;;;;;;;5113921;27;45275;-81
2021/12/27 06:44:41;;;;;;;;;10.33;10.00;;;;;;;;5114367;27;46394;-81
2021/12/27 06:47:06;;;;;;;;;7.33;6.00;;;;;;;;5114702;27;45636;-84
2021/12/27 06:49:31;;;;;;;;;10.00;7.00;;;;;;;;5114583;27;45345;-81
2021/12/27 06:51:57;;;;;;;;;8.75;7.25;;;;;;;;5114158;27;45522;-82
2021/12/27 06:54:22;;;;;;;;;8.50;7.25;;;;;;;;5113594;27;46903;-81
2021/12/27 06:56:47;;;;;;;;;9.33;9.33;;;;;;;;5114149;27;45309;-84
2021/12/27 06:59:13;;;;;;;;;7.33;7.33;;;;;;;;5115612;27;45463;-85
2021/12/27 07:01:38;;;;;;;;;5.00;4.75;;;;;;;;5115514;27;45316;-84
2021/12/27 07:04:03;;;;;;;;;3.33;2.00;;;;;;;;5115670;27;46715;-81
2021/12/27 07:06:28;;;;;;;;;6.50;6.50;;;;;;;;5115472;27;45468;-80
2021/12/27 07:08:54;;;;;;;;;9.33;7.00;;;;;;;;5113633;27;45467;-80
2021/12/27 07:11:19;;;;;;;;;5.00;5.00;;;;;;;;5113961;27;45547;-80
2021/12/27 07:13:44;;;;;;;;;4.67;4.67;;;;;;;;5115285;27;46530;-81
2021/12/27 07:16:09;;;;;;;;;6.00;6.00;;;;;;;;5115464;27;45588;-80
2021/12/27 07:18:34;;;;;;;;;5.00;4.33;;;;;;;;5115103;27;45260;-82
2021/12/27 07:21:00;;;;;;;;;6.00;5.00;;;;;;;;5114004;27;45380;-81
2021/12/27 07:23:25;;;;;;;;;6.67;6.67;;;;;;;;5113452;27;47210;-82
2021/12/27 07:25:50;;;;;;;;;6.00;5.00;;;;;;;;5113327;27;46636;-81
2021/12/27 07:28:15;;;;;;;;;5.00;5.00;;;;;;;;5113991;27;45326;-85
2021/12/27 07:30:41;;;;;;;;;5.75;5.75;;;;;;;;5113879;27;45594;-81
2021/12/27 07:33:06;;;;;;;;;4.00;3.75;;;;;;;;5113564;27;48046;-85
2021/12/27 07:35:32;;;;;;;;;4.50;4.50;;;;;;;;5113462;27;45462;-82
2021/12/27 07:37:57;;;;;;;;;5.00;5.00;;;;;;;;5113351;27;45349;-85
2021/12/27 07:40:22;;;;;;;;;5.00;5.00;;;;;;;;5115104;27;45462;-81
2021/12/27 07:42:48;;;;;;;;;4.00;4.00;;;;;;;;5113335;27;46563;-82
2021/12/27 07:45:13;;;;;;;;;5.50;5.00;;;;;;;;5113624;27;45622;-81
2021/12/27 07:47:38;;;;;;;;;6.00;6.00;;;;;;;;5114737;27;45465;-81
2021/12/27 07:50:05;;;;;;;;;7.33;4.67;;;;;;;;5114880;27;45623;-83
2021/12/27 07:52:30;;;;;;;;;4.00;4.00;;;;;;;;5114589;27;46494;-81
2021/12/27 07:54:55;;;;;;;;;6.00;6.00;;;;;;;;5112952;27;45542;-85
2021/12/27 07:57:20;;;;;;;;;4.67;3.33;;;;;;;;5115401;27;45649;-84
2021/12/27 07:59:49;;;;;;;;;4.00;2.00;;;;;;;;5113221;27;45626;-84
2021/12/27 08:02:15;;;;;;;;;3.75;3.75;;;;;;;;5113306;27;47016;-81
2021/12/27 08:04:40;;;;;;;;;4.25;4.25;;;;;;;;5114438;27;45314;-82
2021/12/27 08:07:05;;;;;;;;;7.00;6.00;;;;;;;;5113373;27;45296;-82
2021/12/27 08:09:31;;;;;;;;;5.00;4.25;;;;;;;;5112728;27;45285;-81
2021/12/27 08:11:56;;;;;;;;;3.67;3.00;;;;;;;;5114277;27;46906;-82
2021/12/27 08:14:21;;;;;;;;;5.67;4.00;;;;;;;;5113249;27;45689;-81
2021/12/27 08:16:46;;;;;;;;;3.33;3.33;;;;;;;;5114383;27;45311;-85
2021/12/27 08:19:12;;;;;;;;;5.00;4.75;;;;;;;;5114336;27;45476;-85
2021/12/27 08:21:38;;;;;;;;;6.00;4.33;;;;;;;;5114989;27;46612;-85
2021/12/27 08:24:04;;;;;;;;;4.25;4.00;;;;;;;;5112526;27;45542;-84
2021/12/27 08:26:29;;;;;;;;;5.25;4.00;;;;;;;;5112984;27;45420;-81
2021/12/27 08:28:55;;;;;;;;;6.00;5.33;;;;;;;;5114137;27;45606;-82
2021/12/27 08:31:20;;;;;;;;;6.25;6.00;;;;;;;;5114337;27;45422;-81
2021/12/27 08:33:45;;;;;;;;;7.33;5.00;;;;;;;;5114132;27;45426;-81
2021/12/27 08:36:10;;;;;;;;;5.67;5.00;;;;;;;;5113031;27;45680;-81
2021/12/27 08:38:36;;;;;;;;;5.33;4.00;;;;;;;;5112537;27;45458;-81
2021/12/27 08:41:01;;;;;;;;;5.25;4.75;;;;;;;;5114494;27;45907;-83
2021/12/27 08:43:26;;;;;;;;;3.00;3.00;;;;;;;;5114209;27;45405;-82
2021/12/27 08:45:52;;;;;;;;;6.00;5.00;;;;;;;;5114193;27;45320;-80
2021/12/27 08:48:17;;;;;;;;;4.75;4.75;;;;;;;;5114238;27;45471;-81
2021/12/27 08:50:42;;;;;;;;;5.00;4.00;;;;;;;;5112511;27;46134;-81
2021/12/27 08:53:08;;;;;;;;;6.00;5.00;;;;;;;;5118370;27;45449;-81
2021/12/27 08:55:34;;;;;;;;;4.67;4.67;;;;;;;;5116206;27;45812;-84
2021/12/27 08:57:59;;;;;;;;;6.00;5.00;;;;;;;;5134684;27;45537;-81
2021/12/27 09:00:25;;;;;;;;;6.33;6.00;;;;;;;;5115733;27;48612;-81
2021/12/27 09:02:50;;;;;;;;;5.67;5.67;;;;;;;;5115856;27;45450;-85
2021/12/27 09:05:16;;;;;;;;;4.50;4.00;;;;;;;;5119124;27;45385;-81
2021/12/27 09:07:41;;;;;;;;;3.33;2.33;;;;;;;;5119096;27;45458;-84
2021/12/27 09:10:07;;;;;;;;;3.33;3.33;;;;;;;;5119239;27;47894;-83
2021/12/27 09:12:32;;;;;;;;;5.25;5.00;;;;;;;;5138201;27;45320;-81
2021/12/27 09:14:58;;;;;;;;;5.00;5.00;;;;;;;;5119478;27;45404;-84
2021/12/27 09:17:23;;;;;;;;;6.00;5.33;;;;;;;;5138262;27;45653;-81
2021/12/27 09:19:48;;;;;;;;;8.00;6.00;;;;;;;;5118980;27;48946;-81
2021/12/27 09:22:15;;;;;;;;;8.67;8.67;;;;;;;;5138086;27;45545;-86
2021/12/27 09:24:41;;;;;;;;;6.25;5.25;;;;;;;;5118998;27;45533;-81
2021/12/27 09:27:06;;;;;;;;;6.25;5.25;;;;;;;;5138071;27;45384;-80
2021/12/27 09:29:31;;;;;;;;;4.33;4.00;;;;;;;;5119191;27;46684;-81
2021/12/27 09:31:57;;;;;;;;;6.25;6.25;;;;;;;;5137505;27;45338;-81
2021/12/27 09:34:22;;;;;;;;;10.33;8.00;;;;;;;;5137796;27;45418;-80
2021/12/27 09:36:47;;;;;;;;;10.33;8.33;;;;;;;;5118954;27;45291;-81
2021/12/27 09:39:13;;;;;;;;;5.25;5.25;;;;;;;;5118654;27;47231;-82
2021/12/27 09:41:38;;;;;;;;;4.00;4.00;;;;;;;;5137716;27;45476;-81
2021/12/27 09:44:04;;;;;;;;;3.75;3.75;;;;;;;;5138015;27;45325;-81
2021/12/27 09:46:30;;;;;;;;;4.50;3.50;;;;;;;;5118809;27;45336;-84
2021/12/27 09:48:57;;;;;;;;;4.00;3.50;;;;;;;;5118991;27;48247;-81
2021/12/27 09:51:23;;;;;;;;;5.25;4.50;;;;;;;;5118622;27;46223;-82
2021/12/27 09:53:48;;;;;;;;;4.00;3.00;;;;;;;;5118341;27;45486;-81
2021/12/27 09:56:13;;;;;;;;;8.00;4.33;;;;;;;;5118904;27;45564;-82
2021/12/27 09:58:39;;;;;;;;;4.67;4.00;;;;;;;;5137674;27;45618;-81
2021/12/27 10:01:06;;;;;;;;;5.25;5.00;;;;;;;;5136899;27;45419;-80
2021/12/27 10:03:31;;;;;;;;;4.00;3.50;;;;;;;;5118777;27;45411;-80
2021/12/27 10:06:09;;;;;;;;;3.75;3.75;;;;;;;;5137245;27;45748;-81
2021/12/27 10:08:35;;;;;;;;;7.50;6.75;;;;;;;;5136704;27;45420;-82
2021/12/27 10:11:00;;;;;;;;;6.00;5.00;;;;;;;;5137141;27;45451;-82
2021/12/27 10:13:25;;;;;;;;;6.00;5.00;;;;;;;;5137053;27;45358;-81
2021/12/27 10:15:50;;;;;;;;;5.00;4.00;;;;;;;;5117207;27;45576;-82
2021/12/27 10:18:17;;;;;;;;;4.67;3.67;;;;;;;;5118492;27;48283;-80
2021/12/27 10:20:44;;;;;;;;;3.25;2.50;;;;;;;;5136999;27;45296;-81
2021/12/27 10:23:09;;;;;;;;;3.50;3.00;;;;;;;;5136542;27;45471;-81
2021/12/27 10:25:35;;;;;;;;;2.75;2.75;;;;;;;;5118652;27;45785;-81
2021/12/27 10:28:00;;;;;;;;;3.25;3.00;;;;;;;;5118276;27;48218;-80
2021/12/27 10:30:28;;;;;;;;;2.75;2.75;;;;;;;;5117902;27;46233;-81
2021/12/27 10:33:14;;;;;;;;;3.00;3.00;;;;;;;;5117554;27;45573;-80
2021/12/27 10:35:41;;;;;;;;;3.00;3.00;;;;;;;;5136831;27;45304;-81
2021/12/27 10:38:17;;;;;;;;;6.00;5.00;;;;;;;;5136188;27;46394;-80
2021/12/27 10:40:54;;;;;;;;;3.25;3.25;;;;;;;;5137192;27;45489;-81
2021/12/27 10:43:32;;;;;;;;;4.75;4.00;;;;;;;;5118085;27;45984;-81
2021/12/27 10:46:02;;;;;;;;;4.25;3.00;;;;;;;;5136636;27;45404;-81
2021/12/27 10:48:32;;;;;;;;;6.25;5.25;;;;;;;;5137043;27;45463;-80
2021/12/27 10:50:57;;;;;;;;;4.00;4.00;;;;;;;;5117719;27;45497;-80
2021/12/27 10:53:23;;;;;;;;;5.00;4.50;;;;;;;;5117364;27;45348;-81
2021/12/27 10:55:48;;;;;;;;;5.33;4.67;;;;;;;;5117739;27;45418;-81
2021/12/27 10:58:13;;;;;;;;;4.25;4.00;;;;;;;;5136236;27;45388;-81
2021/12/27 11:00:39;;;;;;;;;2.67;2.67;;;;;;;;5117871;27;45590;-80
2021/12/27 11:03:04;;;;;;;;;5.00;4.25;;;;;;;;5136406;27;45408;-83
2021/12/27 11:05:31;;;;;;;;;3.00;3.00;;;;;;;;5117742;27;45343;-81
2021/12/27 11:07:59;;;;;;;;;5.75;4.00;;;;;;;;5135917;27;45413;-80
2021/12/27 11:10:24;;;;;;;;;8.75;6.25;;;;;;;;5136457;27;45714;-80
2021/12/27 11:12:50;;;;;;;;;9.50;9.25;;;;;;;;5136308;27;45493;-82
2021/12/27 11:15:15;;;;;;;;;8.50;8.00;;;;;;;;5117496;27;45756;-81
2021/12/27 11:17:41;;;;;;;;;12.75;12.25;;;;;;;;5136092;27;46023;-81
2021/12/27 11:20:08;;;;;;;;;11.75;11.75;;;;;;;;5135989;27;45343;-80
2021/12/27 11:22:35;;;;;;;;;11.25;11.00;;;;;;;;5117281;27;45603;-81
2021/12/27 11:25:05;;;;;;;;;11.25;11.25;;;;;;;;5117206;27;45287;-81
2021/12/27 11:27:32;;;;;;;;;14.50;13.25;;;;;;;;5135603;27;46342;-80
2021/12/27 11:30:12;;;;;;;;;11.00;11.00;;;;;;;;5135809;27;45313;-80
2021/12/27 11:32:57;;;;;;;;;4.00;3.00;;;;;;;;5117274;27;45479;-80
2021/12/27 11:35:22;;;;;;;;;3.00;3.00;;;;;;;;5135814;27;45503;-80
2021/12/27 11:37:48;;;;;;;;;3.00;3.00;;;;;;;;5135214;27;46231;-80
2021/12/27 11:40:15;;;;;;;;;5.67;4.33;;;;;;;;5135969;27;45468;-80
2021/12/27 11:42:57;;;;;;;;;3.00;3.00;;;;;;;;5116672;27;45498;-81
2021/12/27 11:45:41;;;;;;;;;6.00;5.25;;;;;;;;5135999;27;45432;-81
2021/12/27 11:48:08;;;;;;;;;4.00;4.00;;;;;;;;5116824;27;46252;-81
2021/12/27 11:50:33;;;;;;;;;4.00;4.00;;;;;;;;5116744;27;45906;-80
2021/12/27 11:53:05;;;;;;;;;3.75;3.75;;;;;;;;5135428;27;45443;-82
2021/12/27 11:55:39;;;;;;;;;6.25;6.00;;;;;;;;5116978;27;45562;-80
2021/12/27 11:58:04;;;;;;;;;4.50;3.75;;;;;;;;5116580;27;47622;-81
2021/12/27 12:00:29;;;;;;;;;6.67;5.33;;;;;;;;5117204;27;45463;-82
2021/12/27 12:03:06;;;;;;;;;5.00;5.00;;;;;;;;5135414;27;45357;-82
2021/12/27 12:05:45;;;;;;;;;5.00;5.00;;;;;;;;5135408;27;45804;-82
2021/12/27 12:08:11;;;;;;;;;5.00;5.00;;;;;;;;5116113;27;47277;-81
2021/12/27 12:10:38;;;;;;;;;3.75;3.75;;;;;;;;5116651;27;45787;-81
2021/12/27 12:13:19;;;;;;;;;5.00;4.00;;;;;;;;5116922;27;45385;-81
2021/12/27 12:16:08;;;;;;;;;3.00;3.00;;;;;;;;5135264;27;45457;-81
2021/12/27 12:18:36;;;;;;;;;3.50;3.00;;;;;;;;5116620;27;47117;-81
2021/12/27 12:21:01;;;;;;;;;3.00;3.00;;;;;;;;5135045;27;45825;-81
2021/12/27 12:23:27;;;;;;;;;2.00;2.00;;;;;;;;5134898;27;45451;-81
2021/12/27 12:25:59;;;;;;;;;3.00;3.00;;;;;;;;5135098;27;45445;-81
2021/12/27 12:28:24;;;;;;;;;3.00;3.00;;;;;;;;5116326;27;49253;-82
2021/12/27 12:30:51;;;;;;;;;3.00;3.00;;;;;;;;5135592;27;45476;-81
2021/12/27 12:33:23;;;;;;;;;3.75;3.00;;;;;;;;5135179;27;45427;-81
2021/12/27 12:35:50;;;;;;;;;5.00;4.00;;;;;;;;5134939;27;45430;-81
2021/12/27 12:38:18;;;;;;;;;4.50;4.25;;;;;;;;5134546;27;45308;-82
2021/12/27 12:40:45;;;;;;;;;2.00;2.00;;;;;;;;5119780;27;45834;-81
2021/12/27 12:43:10;;;;;;;;;2.25;2.25;;;;;;;;5138819;27;45384;-81
2021/12/27 12:45:37;;;;;;;;;3.75;3.50;;;;;;;;5138718;27;45469;-81
2021/12/27 12:48:02;;;;;;;;;3.25;3.00;;;;;;;;5138629;27;45456;-81
2021/12/27 12:50:28;;;;;;;;;4.25;3.75;;;;;;;;5138143;27;45373;-81
2021/12/27 12:52:54;;;;;;;;;5.00;3.00;;;;;;;;5119359;27;45458;-81
2021/12/27 12:55:21;;;;;;;;;2.25;2.25;;;;;;;;5119867;27;45524;-81
2021/12/27 12:57:48;;;;;;;;;4.75;3.75;;;;;;;;5119822;27;46277;-81
2021/12/27 13:00:13;;;;;;;;;7.00;6.00;;;;;;;;5119909;27;45843;-81
2021/12/27 13:02:39;;;;;;;;;5.00;4.00;;;;;;;;5137993;27;45469;-81
2021/12/27 13:05:07;;;;;;;;;4.00;4.00;;;;;;;;5138359;27;45429;-81
2021/12/27 13:07:46;;;;;;;;;5.00;4.25;;;;;;;;5137697;27;45540;-81
2021/12/27 13:10:29;;;;;;;;;2.75;2.75;;;;;;;;5138382;27;45823;-81
2021/12/27 13:12:56;;;;;;;;;4.00;3.75;;;;;;;;5119784;27;45611;-81
2021/12/27 13:15:21;;;;;;;;;6.25;5.00;;;;;;;;5119485;27;45577;-81
2021/12/27 13:18:04;;;;;;;;;4.67;4.00;;;;;;;;5119654;27;47001;-81
2021/12/27 13:20:31;;;;;;;;;3.75;3.00;;;;;;;;5119195;27;45348;-81
2021/12/27 13:22:57;;;;;;;;;5.75;4.75;;;;;;;;5119030;27;45322;-82
2021/12/27 13:25:31;;;;;;;;;3.25;3.25;;;;;;;;5119245;27;45368;-81
2021/12/27 13:28:34;;;;;;;;;4.75;4.00;;;;;;;;5118993;27;47089;-81
2021/12/27 13:31:00;;;;;;;;;5.00;4.00;;;;;;;;5084358;27;45874;-81
2021/12/27 13:33:30;;;;;;;;;4.00;3.67;;;;;;;;5137979;27;45488;-81
2021/12/27 13:35:56;;;;;;;;;3.25;2.75;;;;;;;;5137829;27;45400;-81
2021/12/27 13:38:23;;;;;;;;;6.00;4.50;;;;;;;;5137322;27;45516;-81
2021/12/27 13:40:59;;;;;;;;;5.25;4.00;;;;;;;;5137996;27;46227;-81
2021/12/27 13:43:25;;;;;;;;;5.00;5.00;;;;;;;;5114141;27;45322;-81
2021/12/27 13:45:50;;;;;;;;;7.00;5.75;;;;;;;;5119051;27;45555;-80
2021/12/27 13:48:27;;;;;;;;;5.25;4.50;;;;;;;;5137863;27;45490;-81
2021/12/27 13:50:53;;;;;;;;;4.50;4.00;;;;;;;;5118436;27;45956;-81
2021/12/27 13:53:18;;;;;;;;;4.00;3.00;;;;;;;;5137275;27;45247;-81
2021/12/27 13:55:44;;;;;;;;;4.67;4.00;;;;;;;;5118822;27;45393;-81
2021/12/27 13:58:23;;;;;;;;;4.00;3.00;;;;;;;;5118863;27;46112;-83
2021/12/27 14:00:53;;;;;;;;;6.50;4.75;;;;;;;;5118599;27;45868;-81
2021/12/27 14:03:29;;;;;;;;;5.50;5.25;;;;;;;;5118713;27;45487;-82
2021/12/27 14:05:55;;;;;;;;;6.50;6.00;;;;;;;;5118676;27;45439;-81
2021/12/27 14:08:21;;;;;;;;;7.50;5.00;;;;;;;;5118058;27;48678;-82
2021/12/27 14:10:58;;;;;;;;;7.50;4.25;;;;;;;;5137369;27;45291;-81
2021/12/27 14:13:24;;;;;;;;;4.50;3.00;;;;;;;;5118586;27;45556;-81
2021/12/27 14:15:49;;;;;;;;;8.00;4.00;;;;;;;;5137162;27;45486;-80
2021/12/27 14:18:17;;;;;;;;;4.33;4.33;;;;;;;;5137031;27;46291;-82
2021/12/27 14:21:00;;;;;;;;;4.75;4.00;;;;;;;;5118365;27;45579;-81
2021/12/27 14:23:25;;;;;;;;;5.75;3.50;;;;;;;;5137021;27;45311;-81
2021/12/27 14:25:51;;;;;;;;;7.00;4.33;;;;;;;;5136954;27;45409;-81
2021/12/27 14:28:16;;;;;;;;;6.25;4.00;;;;;;;;5118112;27;47210;-81
2021/12/27 14:30:43;;;;;;;;;7.00;5.00;;;;;;;;5118286;27;45279;-82
2021/12/27 14:33:10;;;;;;;;;7.50;6.00;;;;;;;;5137020;27;45286;-81
2021/12/27 14:35:39;;;;;;;;;8.00;6.75;;;;;;;;5136957;27;45371;-81
2021/12/27 14:38:06;;;;;;;;;6.50;5.00;;;;;;;;5117605;27;47353;-81
2021/12/27 14:40:32;;;;;;;;;7.00;5.50;;;;;;;;5117730;27;45797;-82
2021/12/27 14:42:57;;;;;;;;;9.00;8.25;;;;;;;;5136822;27;45480;-81
2021/12/27 14:45:23;;;;;;;;;8.75;7.00;;;;;;;;5117964;27;45416;-82
2021/12/27 14:47:49;;;;;;;;;7.00;5.00;;;;;;;;5117629;27;47175;-81